Terminal Aerodrome Forecast
Issued by NWS

Home | Current Version | Previous Version | Text Only | Print | Product List | Glossary On
Versions: 1 2 3 4 5 6 7 8 9 10 11 12 13 14 15
044
FTUS44 KLUB 242326
TAFCDS
TAF
KCDS 242326Z 2500/2524 09006KT P6SM SCT025 BKN035
     FM251200 09011KT P6SM BKN020 OVC080=

USA.gov is the U.S. government's official web portal to all federal, state and local government web resources and services.